sensor_id;sensor_type;location;lat;lon;timestamp;noise_LAeq;noise_LA_min;noise_LA_max;noise_LA01;noise_LA95
80864;Laerm;70936;51.680;5.974;2023-10-31T00:03:06;29.28;28.45;35.29;;
80864;Laerm;70936;51.680;5.974;2023-10-31T00:07:06;29.33;28.42;34.75;;
80864;Laerm;70936;51.680;5.974;2023-10-31T00:11:06;29.22;28.46;30.23;;
80864;Laerm;70936;51.680;5.974;2023-10-31T00:15:06;29.22;28.38;30.83;;
80864;Laerm;70936;51.680;5.974;2023-10-31T00:19:06;29.14;28.37;29.97;;
80864;Laerm;70936;51.680;5.974;2023-10-31T00:23:06;29.14;28.41;29.99;;
80864;Laerm;70936;51.680;5.974;2023-10-31T00:27:06;29.31;28.46;37.09;;
80864;Laerm;70936;51.680;5.974;2023-10-31T00:31:06;29.16;28.42;30.77;;
80864;Laerm;70936;51.680;5.974;2023-10-31T00:35:06;29.12;28.29;30.54;;
80864;Laerm;70936;51.680;5.974;2023-10-31T00:39:06;29.13;28.32;29.9;;
80864;Laerm;70936;51.680;5.974;2023-10-31T00:43:06;29.14;28.39;30.27;;
80864;Laerm;70936;51.680;5.974;2023-10-31T00:47:06;29.13;28.34;31.3;;
80864;Laerm;70936;51.680;5.974;2023-10-31T00:51:06;29.12;28.4;30.85;;
80864;Laerm;70936;51.680;5.974;2023-10-31T00:55:06;29.11;28.49;29.83;;
80864;Laerm;70936;51.680;5.974;2023-10-31T00:59:06;29.26;28.41;35.98;;
80864;Laerm;70936;51.680;5.974;2023-10-31T01:03:06;30.18;28.44;46.7;;
80864;Laerm;70936;51.680;5.974;2023-10-31T01:07:06;30.08;28.42;40.6;;
80864;Laerm;70936;51.680;5.974;2023-10-31T01:11:06;29.1;28.26;29.92;;
80864;Laerm;70936;51.680;5.974;2023-10-31T01:15:06;29.11;28.4;29.94;;
80864;Laerm;70936;51.680;5.974;2023-10-31T01:19:06;29.13;28.35;29.95;;
80864;Laerm;70936;51.680;5.974;2023-10-31T01:23:06;30.12;28.51;41.3;;
80864;Laerm;70936;51.680;5.974;2023-10-31T01:27:06;29.13;28.13;34.11;;
80864;Laerm;70936;51.680;5.974;2023-10-31T01:31:06;29.12;28.48;29.89;;
80864;Laerm;70936;51.680;5.974;2023-10-31T01:35:07;29.13;28.46;29.96;;
80864;Laerm;70936;51.680;5.974;2023-10-31T01:39:06;29.12;28.42;29.84;;
80864;Laerm;70936;51.680;5.974;2023-10-31T01:43:06;29.12;28.33;30.35;;
80864;Laerm;70936;51.680;5.974;2023-10-31T01:47:06;29.1;28.29;30.06;;
80864;Laerm;70936;51.680;5.974;2023-10-31T01:51:06;29.1;28.39;29.99;;
80864;Laerm;70936;51.680;5.974;2023-10-31T01:55:06;29.1;28.36;29.81;;
80864;Laerm;70936;51.680;5.974;2023-10-31T01:59:06;29.11;28.41;30.13;;
80864;Laerm;70936;51.680;5.974;2023-10-31T02:03:06;29.12;28.31;29.88;;
80864;Laerm;70936;51.680;5.974;2023-10-31T02:07:06;29.12;28.3;29.93;;
80864;Laerm;70936;51.680;5.974;2023-10-31T02:11:06;29.88;28.32;44.36;;
80864;Laerm;70936;51.680;5.974;2023-10-31T02:15:07;29.14;28.42;29.88;;
80864;Laerm;70936;51.680;5.974;2023-10-31T02:19:06;29.13;28.33;29.96;;
80864;Laerm;70936;51.680;5.974;2023-10-31T02:23:06;29.1;28.38;29.88;;
80864;Laerm;70936;51.680;5.974;2023-10-31T02:27:06;29.12;28.49;29.88;;
80864;Laerm;70936;51.680;5.974;2023-10-31T02:31:06;29.11;28.31;31.66;;
80864;Laerm;70936;51.680;5.974;2023-10-31T02:35:06;29.15;28.37;31.83;;
80864;Laerm;70936;51.680;5.974;2023-10-31T02:39:06;30.67;28.37;44.21;;
80864;Laerm;70936;51.680;5.974;2023-10-31T02:43:06;29.11;28.34;29.89;;
80864;Laerm;70936;51.680;5.974;2023-10-31T02:47:06;29.12;28.34;33.31;;
80864;Laerm;70936;51.680;5.974;2023-10-31T02:51:06;29.58;28.38;40.16;;
80864;Laerm;70936;51.680;5.974;2023-10-31T02:55:06;29.2;28.42;36.76;;
80864;Laerm;70936;51.680;5.974;2023-10-31T02:59:06;29.11;28.33;29.97;;
80864;Laerm;70936;51.680;5.974;2023-10-31T03:03:06;29.14;28.39;33.92;;
80864;Laerm;70936;51.680;5.974;2023-10-31T03:07:06;29.24;28.37;33.34;;
80864;Laerm;70936;51.680;5.974;2023-10-31T03:11:06;29.12;28.42;29.82;;
80864;Laerm;70936;51.680;5.974;2023-10-31T03:15:07;29.11;28.32;29.93;;
80864;Laerm;70936;51.680;5.974;2023-10-31T03:19:06;29.1;28.37;29.81;;
80864;Laerm;70936;51.680;5.974;2023-10-31T03:23:06;29.11;28.4;29.86;;
80864;Laerm;70936;51.680;5.974;2023-10-31T03:27:06;29.21;28.48;34.07;;
80864;Laerm;70936;51.680;5.974;2023-10-31T03:31:06;29.14;28.41;29.86;;
80864;Laerm;70936;51.680;5.974;2023-10-31T03:35:06;29.12;28.4;29.94;;
80864;Laerm;70936;51.680;5.974;2023-10-31T03:39:06;29.17;28.3;33.24;;
80864;Laerm;70936;51.680;5.974;2023-10-31T03:43:06;29.52;28.3;41.22;;
80864;Laerm;70936;51.680;5.974;2023-10-31T03:47:06;29.61;28.42;37.17;;
80864;Laerm;70936;51.680;5.974;2023-10-31T03:51:06;29.17;28.42;31.71;;
80864;Laerm;70936;51.680;5.974;2023-10-31T03:55:07;29.6;28.41;39.49;;
80864;Laerm;70936;51.680;5.974;2023-10-31T03:59:06;29.91;28.47;43.74;;
80864;Laerm;70936;51.680;5.974;2023-10-31T04:03:06;30.07;28.48;43.56;;
80864;Laerm;70936;51.680;5.974;2023-10-31T04:07:06;29.37;28.49;35.32;;
80864;Laerm;70936;51.680;5.974;2023-10-31T04:11:06;29.59;28.48;38.38;;
80864;Laerm;70936;51.680;5.974;2023-10-31T04:15:07;29.29;28.36;34.55;;
80864;Laerm;70936;51.680;5.974;2023-10-31T04:19:06;29.32;28.53;33.59;;
80864;Laerm;70936;51.680;5.974;2023-10-31T04:23:06;29.46;28.51;34.02;;
80864;Laerm;70936;51.680;5.974;2023-10-31T04:27:06;29.63;28.48;38.9;;
80864;Laerm;70936;51.680;5.974;2023-10-31T04:31:06;29.57;28.59;35.18;;
80864;Laerm;70936;51.680;5.974;2023-10-31T04:35:06;29.65;28.47;37.88;;
80864;Laerm;70936;51.680;5.974;2023-10-31T04:39:06;29.42;28.5;37.32;;
80864;Laerm;70936;51.680;5.974;2023-10-31T04:43:06;29.38;28.49;35.9;;
80864;Laerm;70936;51.680;5.974;2023-10-31T04:47:06;29.74;28.47;36.96;;
80864;Laerm;70936;51.680;5.974;2023-10-31T04:51:06;29.56;28.54;34.52;;
80864;Laerm;70936;51.680;5.974;2023-10-31T04:55:06;31.27;28.54;45.63;;
80864;Laerm;70936;51.680;5.974;2023-10-31T04:59:06;31.5;28.49;44.23;;
80864;Laerm;70936;51.680;5.974;2023-10-31T05:03:06;29.72;28.38;38.84;;
80864;Laerm;70936;51.680;5.974;2023-10-31T05:07:06;30.56;28.51;42.9;;
80864;Laerm;70936;51.680;5.974;2023-10-31T05:11:06;30.61;28.42;40.75;;
80864;Laerm;70936;51.680;5.974;2023-10-31T05:15:07;31.57;28.34;46.38;;
80864;Laerm;70936;51.680;5.974;2023-10-31T05:19:06;31.19;28.51;44.95;;
80864;Laerm;70936;51.680;5.974;2023-10-31T05:23:06;31.46;28.54;41.5;;
80864;Laerm;70936;51.680;5.974;2023-10-31T05:27:06;30.8;28.57;42.5;;
80864;Laerm;70936;51.680;5.974;2023-10-31T05:31:06;30.19;28.4;44.12;;
80864;Laerm;70936;51.680;5.974;2023-10-31T05:35:06;32.98;28.58;47.07;;
80864;Laerm;70936;51.680;5.974;2023-10-31T05:39:06;30.87;28.58;43.48;;
80864;Laerm;70936;51.680;5.974;2023-10-31T05:43:06;32.27;28.51;46.93;;
80864;Laerm;70936;51.680;5.974;2023-10-31T05:47:06;31.57;28.59;47.05;;
80864;Laerm;70936;51.680;5.974;2023-10-31T05:51:10;34.64;28.5;53.84;;
80864;Laerm;70936;51.680;5.974;2023-10-31T05:55:07;34;28.69;55.96;;
80864;Laerm;70936;51.680;5.974;2023-10-31T05:59:06;36.25;28.83;59.08;;
80864;Laerm;70936;51.680;5.974;2023-10-31T06:03:06;35.53;28.7;57.93;;
80864;Laerm;70936;51.680;5.974;2023-10-31T06:07:06;33.43;28.65;51.51;;
80864;Laerm;70936;51.680;5.974;2023-10-31T06:11:06;33.12;28.71;51.46;;
80864;Laerm;70936;51.680;5.974;2023-10-31T06:15:07;36.13;28.65;57.79;;
80864;Laerm;70936;51.680;5.974;2023-10-31T06:19:06;33.34;28.68;53.74;;
80864;Laerm;70936;51.680;5.974;2023-10-31T06:23:06;34.38;28.82;53.33;;
80864;Laerm;70936;51.680;5.974;2023-10-31T06:27:06;32.09;28.56;51.68;;
80864;Laerm;70936;51.680;5.974;2023-10-31T06:31:06;32.93;28.62;49.41;;
80864;Laerm;70936;51.680;5.974;2023-10-31T06:35:07;32.9;28.69;51.14;;
80864;Laerm;70936;51.680;5.974;2023-10-31T06:39:06;31.41;28.77;50.48;;
80864;Laerm;70936;51.680;5.974;2023-10-31T06:43:06;31.98;28.77;47.42;;
80864;Laerm;70936;51.680;5.974;2023-10-31T06:47:06;36;28.66;65.53;;
80864;Laerm;70936;51.680;5.974;2023-10-31T06:51:06;30.98;28.82;43.74;;
80864;Laerm;70936;51.680;5.974;2023-10-31T06:55:06;31.55;28.84;49.38;;
80864;Laerm;70936;51.680;5.974;2023-10-31T06:59:06;32.71;28.72;49.68;;
80864;Laerm;70936;51.680;5.974;2023-10-31T07:03:07;30.68;28.65;45.47;;
80864;Laerm;70936;51.680;5.974;2023-10-31T07:07:06;31.53;28.61;48.65;;
80864;Laerm;70936;51.680;5.974;2023-10-31T07:11:06;33.79;28.66;57.96;;
80864;Laerm;70936;51.680;5.974;2023-10-31T07:15:07;31.83;28.7;49.98;;
80864;Laerm;70936;51.680;5.974;2023-10-31T07:19:06;32.52;28.77;51.82;;
80864;Laerm;70936;51.680;5.974;2023-10-31T07:23:06;33.17;28.83;44.29;;
80864;Laerm;70936;51.680;5.974;2023-10-31T07:27:06;32.92;28.73;54.38;;
80864;Laerm;70936;51.680;5.974;2023-10-31T07:31:06;35.42;28.79;57.74;;
80864;Laerm;70936;51.680;5.974;2023-10-31T07:35:06;32.35;28.53;45.14;;
80864;Laerm;70936;51.680;5.974;2023-10-31T07:39:06;32.72;28.62;44.9;;
80864;Laerm;70936;51.680;5.974;2023-10-31T07:43:06;33.02;28.69;49.31;;
80864;Laerm;70936;51.680;5.974;2023-10-31T07:47:06;34.43;28.65;57.54;;
80864;Laerm;70936;51.680;5.974;2023-10-31T07:51:06;31.3;28.7;51.37;;
80864;Laerm;70936;51.680;5.974;2023-10-31T07:55:06;31.49;28.45;43.14;;
80864;Laerm;70936;51.680;5.974;2023-10-31T07:59:06;30.76;28.83;38.4;;
80864;Laerm;70936;51.680;5.974;2023-10-31T08:03:06;32.29;28.72;43.62;;
80864;Laerm;70936;51.680;5.974;2023-10-31T08:07:06;32.22;28.74;45.3;;
80864;Laerm;70936;51.680;5.974;2023-10-31T08:11:07;32.66;28.72;45.3;;
80864;Laerm;70936;51.680;5.974;2023-10-31T08:15:06;30.67;28.77;39.82;;
80864;Laerm;70936;51.680;5.974;2023-10-31T08:19:06;32.61;28.86;49.04;;
80864;Laerm;70936;51.680;5.974;2023-10-31T08:23:06;32.75;28.63;49.3;;
80864;Laerm;70936;51.680;5.974;2023-10-31T08:27:06;31.91;28.81;44.82;;
80864;Laerm;70936;51.680;5.974;2023-10-31T08:31:06;32.52;28.63;45.91;;
80864;Laerm;70936;51.680;5.974;2023-10-31T08:35:07;32.09;28.73;44.14;;
80864;Laerm;70936;51.680;5.974;2023-10-31T08:39:06;33.58;28.4;51.84;;
80864;Laerm;70936;51.680;5.974;2023-10-31T08:43:06;31.37;28.6;44.57;;
80864;Laerm;70936;51.680;5.974;2023-10-31T08:47:06;32.68;28.68;48.86;;
80864;Laerm;70936;51.680;5.974;2023-10-31T08:51:06;36.65;28.65;55.78;;
80864;Laerm;70936;51.680;5.974;2023-10-31T08:55:06;34.1;28.65;56.26;;
80864;Laerm;70936;51.680;5.974;2023-10-31T08:59:06;35.6;28.75;55.46;;
80864;Laerm;70936;51.680;5.974;2023-10-31T09:03:06;33.3;28.62;59.34;;
80864;Laerm;70936;51.680;5.974;2023-10-31T09:07:07;30.84;28.63;42.15;;
80864;Laerm;70936;51.680;5.974;2023-10-31T09:11:06;33.66;28.65;48.87;;
80864;Laerm;70936;51.680;5.974;2023-10-31T09:15:06;31.74;28.67;45.26;;
80864;Laerm;70936;51.680;5.974;2023-10-31T09:19:06;33.8;28.73;46.67;;
80864;Laerm;70936;51.680;5.974;2023-10-31T09:23:06;31.64;28.51;46.8;;
80864;Laerm;70936;51.680;5.974;2023-10-31T09:27:06;32.74;28.69;43.94;;
80864;Laerm;70936;51.680;5.974;2023-10-31T09:31:06;32.56;28.71;44.01;;
80864;Laerm;70936;51.680;5.974;2023-10-31T09:35:06;32.92;28.61;53.14;;
80864;Laerm;70936;51.680;5.974;2023-10-31T09:39:06;31.64;28.45;44.56;;
80864;Laerm;70936;51.680;5.974;2023-10-31T09:43:06;31.67;28.5;47.07;;
80864;Laerm;70936;51.680;5.974;2023-10-31T09:47:06;30.82;28.53;50.2;;
80864;Laerm;70936;51.680;5.974;2023-10-31T09:51:06;33.86;28.63;49.6;;
80864;Laerm;70936;51.680;5.974;2023-10-31T09:55:07;32.52;28.57;47.42;;
80864;Laerm;70936;51.680;5.974;2023-10-31T09:59:06;31.56;28.7;44.56;;
80864;Laerm;70936;51.680;5.974;2023-10-31T10:03:06;31.63;28.51;44.96;;
80864;Laerm;70936;51.680;5.974;2023-10-31T10:07:07;40.22;28.84;59.26;;
80864;Laerm;70936;51.680;5.974;2023-10-31T10:11:06;32.1;28.9;45.25;;
80864;Laerm;70936;51.680;5.974;2023-10-31T10:15:07;32.76;28.55;50.04;;
80864;Laerm;70936;51.680;5.974;2023-10-31T10:19:14;33.59;28.75;54.89;;
80864;Laerm;70936;51.680;5.974;2023-10-31T10:23:06;31.59;28.67;44.1;;
80864;Laerm;70936;51.680;5.974;2023-10-31T10:27:06;31.1;28.59;44.13;;
80864;Laerm;70936;51.680;5.974;2023-10-31T10:31:06;32.99;28.69;47.46;;
80864;Laerm;70936;51.680;5.974;2023-10-31T10:35:06;31.15;28.56;44.93;;
80864;Laerm;70936;51.680;5.974;2023-10-31T10:39:06;32.33;28.78;48.01;;
80864;Laerm;70936;51.680;5.974;2023-10-31T10:43:06;33.32;28.71;46.39;;
80864;Laerm;70936;51.680;5.974;2023-10-31T10:47:06;32.58;28.9;45.47;;
80864;Laerm;70936;51.680;5.974;2023-10-31T10:51:07;30.95;28.83;42.45;;
80864;Laerm;70936;51.680;5.974;2023-10-31T10:55:08;32.94;28.68;50.43;;
80864;Laerm;70936;51.680;5.974;2023-10-31T10:59:07;31.53;28.45;51.97;;
80864;Laerm;70936;51.680;5.974;2023-10-31T11:03:07;32.5;28.83;52.08;;
80864;Laerm;70936;51.680;5.974;2023-10-31T11:07:06;32.3;28.78;51.08;;
80864;Laerm;70936;51.680;5.974;2023-10-31T11:11:06;32.52;28.72;44.06;;
80864;Laerm;70936;51.680;5.974;2023-10-31T11:15:07;30.62;28.53;43.6;;
80864;Laerm;70936;51.680;5.974;2023-10-31T11:19:06;31.69;28.77;45.77;;
80864;Laerm;70936;51.680;5.974;2023-10-31T11:23:06;34.54;28.86;51.82;;
80864;Laerm;70936;51.680;5.974;2023-10-31T11:27:06;34.89;28.62;53.92;;
80864;Laerm;70936;51.680;5.974;2023-10-31T11:31:08;30.52;28.58;43.05;;
80864;Laerm;70936;51.680;5.974;2023-10-31T11:35:07;31.94;28.61;43.39;;
80864;Laerm;70936;51.680;5.974;2023-10-31T11:39:10;29.76;28.57;36.87;;
80864;Laerm;70936;51.680;5.974;2023-10-31T11:43:06;31.05;28.65;47.83;;
80864;Laerm;70936;51.680;5.974;2023-10-31T11:47:08;31.69;28.64;45.57;;
80864;Laerm;70936;51.680;5.974;2023-10-31T11:51:06;37.59;28.55;63.01;;
80864;Laerm;70936;51.680;5.974;2023-10-31T11:55:08;31.07;28.67;47.62;;
80864;Laerm;70936;51.680;5.974;2023-10-31T11:59:06;33.08;28.61;51.87;;
80864;Laerm;70936;51.680;5.974;2023-10-31T12:03:06;31.8;28.76;43.68;;
80864;Laerm;70936;51.680;5.974;2023-10-31T12:07:11;33.45;28.75;50.54;;
80864;Laerm;70936;51.680;5.974;2023-10-31T12:11:07;32.31;28.72;47.62;;
80864;Laerm;70936;51.680;5.974;2023-10-31T12:15:06;31.66;28.67;46.51;;
80864;Laerm;70936;51.680;5.974;2023-10-31T12:19:06;31.06;28.81;40.13;;
80864;Laerm;70936;51.680;5.974;2023-10-31T12:23:06;31.21;28.68;42.38;;
80864;Laerm;70936;51.680;5.974;2023-10-31T12:27:06;34.5;28.85;53.58;;
80864;Laerm;70936;51.680;5.974;2023-10-31T12:31:06;33.31;28.89;49.49;;
80864;Laerm;70936;51.680;5.974;2023-10-31T12:35:06;33.48;28.81;49.02;;
80864;Laerm;70936;51.680;5.974;2023-10-31T12:39:07;38.08;28.51;63.89;;
80864;Laerm;70936;51.680;5.974;2023-10-31T12:43:06;47.04;29.02;64.46;;
80864;Laerm;70936;51.680;5.974;2023-10-31T12:47:07;48.56;29.09;73.19;;
80864;Laerm;70936;51.680;5.974;2023-10-31T12:51:06;34.6;28.89;49.53;;
80864;Laerm;70936;51.680;5.974;2023-10-31T12:55:11;34.04;28.75;51.4;;
80864;Laerm;70936;51.680;5.974;2023-10-31T12:59:06;31.13;28.66;45.2;;
80864;Laerm;70936;51.680;5.974;2023-10-31T13:03:07;32.2;28.47;50.64;;
80864;Laerm;70936;51.680;5.974;2023-10-31T13:07:07;38.34;28.84;59.96;;
80864;Laerm;70936;51.680;5.974;2023-10-31T13:11:07;33.18;28.69;45.47;;
80864;Laerm;70936;51.680;5.974;2023-10-31T13:15:07;34.95;28.73;56.91;;
80864;Laerm;70936;51.680;5.974;2023-10-31T13:19:06;32.21;28.81;56.98;;
80864;Laerm;70936;51.680;5.974;2023-10-31T13:23:06;35.06;28.71;54.49;;
80864;Laerm;70936;51.680;5.974;2023-10-31T13:27:06;33.47;28.81;46.74;;
80864;Laerm;70936;51.680;5.974;2023-10-31T13:31:06;33.83;28.82;50.7;;
80864;Laerm;70936;51.680;5.974;2023-10-31T13:35:06;34.19;28.82;53.97;;
80864;Laerm;70936;51.680;5.974;2023-10-31T13:39:06;32.97;28.52;47.77;;
80864;Laerm;70936;51.680;5.974;2023-10-31T13:43:06;30.87;28.62;41.33;;
80864;Laerm;70936;51.680;5.974;2023-10-31T13:47:06;30.79;28.67;40.69;;
80864;Laerm;70936;51.680;5.974;2023-10-31T13:51:06;31.41;28.85;46.61;;
80864;Laerm;70936;51.680;5.974;2023-10-31T13:55:07;31.44;28.75;42.01;;
80864;Laerm;70936;51.680;5.974;2023-10-31T13:59:06;35.83;28.85;56.04;;
80864;Laerm;70936;51.680;5.974;2023-10-31T14:03:06;43.53;28.84;63.95;;
80864;Laerm;70936;51.680;5.974;2023-10-31T14:07:06;38.78;28.94;62.75;;
80864;Laerm;70936;51.680;5.974;2023-10-31T14:11:06;31.81;28.61;49.7;;
80864;Laerm;70936;51.680;5.974;2023-10-31T14:15:07;31.39;28.46;48.37;;
80864;Laerm;70936;51.680;5.974;2023-10-31T14:19:06;31.51;28.48;42.28;;
80864;Laerm;70936;51.680;5.974;2023-10-31T14:23:06;31.18;28.55;43.45;;
80864;Laerm;70936;51.680;5.974;2023-10-31T14:27:06;31.77;28.61;47.43;;
80864;Laerm;70936;51.680;5.974;2023-10-31T14:31:07;33.34;28.7;53.16;;
80864;Laerm;70936;51.680;5.974;2023-10-31T14:35:07;31.99;28.72;48.12;;
80864;Laerm;70936;51.680;5.974;2023-10-31T14:39:06;34.08;28.56;52.79;;
80864;Laerm;70936;51.680;5.974;2023-10-31T14:43:06;31.15;28.6;47.26;;
80864;Laerm;70936;51.680;5.974;2023-10-31T14:47:06;30.47;28.67;40.27;;
80864;Laerm;70936;51.680;5.974;2023-10-31T14:51:06;31.4;28.62;42.92;;
80864;Laerm;70936;51.680;5.974;2023-10-31T14:55:07;31.91;28.68;44.12;;
80864;Laerm;70936;51.680;5.974;2023-10-31T14:59:06;32.43;28.81;49.73;;
80864;Laerm;70936;51.680;5.974;2023-10-31T15:03:06;31.67;28.61;40.99;;
80864;Laerm;70936;51.680;5.974;2023-10-31T15:07:06;31.86;28.61;44.71;;
80864;Laerm;70936;51.680;5.974;2023-10-31T15:11:06;31.59;28.49;44.91;;
80864;Laerm;70936;51.680;5.974;2023-10-31T15:15:06;32.07;28.83;50.88;;
80864;Laerm;70936;51.680;5.974;2023-10-31T15:19:06;32.09;28.65;48.43;;
80864;Laerm;70936;51.680;5.974;2023-10-31T15:23:06;32.06;28.81;50.99;;
80864;Laerm;70936;51.680;5.974;2023-10-31T15:27:06;30.91;28.72;39.75;;
80864;Laerm;70936;51.680;5.974;2023-10-31T15:31:06;32.29;28.88;44.8;;
80864;Laerm;70936;51.680;5.974;2023-10-31T15:35:06;31.44;28.65;41.17;;
80864;Laerm;70936;51.680;5.974;2023-10-31T15:39:06;31.61;28.75;40.76;;
80864;Laerm;70936;51.680;5.974;2023-10-31T15:43:06;32.08;28.77;42.62;;
80864;Laerm;70936;51.680;5.974;2023-10-31T15:47:06;31.67;28.75;45.9;;
80864;Laerm;70936;51.680;5.974;2023-10-31T15:51:06;31.33;28.82;42.77;;
80864;Laerm;70936;51.680;5.974;2023-10-31T15:55:06;31.33;28.86;42.46;;
80864;Laerm;70936;51.680;5.974;2023-10-31T15:59:06;30.37;28.65;36.77;;
80864;Laerm;70936;51.680;5.974;2023-10-31T16:03:06;31.98;28.62;47.13;;
80864;Laerm;70936;51.680;5.974;2023-10-31T16:07:06;32.16;28.84;47.45;;
80864;Laerm;70936;51.680;5.974;2023-10-31T16:11:06;33.58;28.83;54.1;;
80864;Laerm;70936;51.680;5.974;2023-10-31T16:15:07;33.12;29.53;50.76;;
80864;Laerm;70936;51.680;5.974;2023-10-31T16:19:06;31.98;28.96;50.77;;
80864;Laerm;70936;51.680;5.974;2023-10-31T16:23:06;31.51;29.14;50.79;;
80864;Laerm;70936;51.680;5.974;2023-10-31T16:27:06;33.58;29.05;53.98;;
80864;Laerm;70936;51.680;5.974;2023-10-31T16:31:06;31.52;29.12;48.15;;
80864;Laerm;70936;51.680;5.974;2023-10-31T16:35:06;32.67;28.95;51.81;;
80864;Laerm;70936;51.680;5.974;2023-10-31T16:39:06;36.82;28.72;60.26;;
80864;Laerm;70936;51.680;5.974;2023-10-31T16:43:06;33.99;28.61;51.81;;
80864;Laerm;70936;51.680;5.974;2023-10-31T16:47:06;33.78;28.71;53.2;;
80864;Laerm;70936;51.680;5.974;2023-10-31T16:51:11;37.55;28.82;58.6;;
80864;Laerm;70936;51.680;5.974;2023-10-31T16:55:07;33.41;28.73;54.97;;
80864;Laerm;70936;51.680;5.974;2023-10-31T16:59:06;39.23;28.8;59.23;;
80864;Laerm;70936;51.680;5.974;2023-10-31T17:03:06;36.85;28.77;56.87;;
80864;Laerm;70936;51.680;5.974;2023-10-31T17:07:06;36.06;28.83;55.62;;
80864;Laerm;70936;51.680;5.974;2023-10-31T17:11:06;34.72;28.73;57.22;;
80864;Laerm;70936;51.680;5.974;2023-10-31T17:15:07;32.8;28.59;55.66;;
80864;Laerm;70936;51.680;5.974;2023-10-31T17:19:06;36.12;29.34;63.08;;
80864;Laerm;70936;51.680;5.974;2023-10-31T17:23:06;30.65;28.52;44.47;;
80864;Laerm;70936;51.680;5.974;2023-10-31T17:27:06;31.78;28.59;54.55;;
80864;Laerm;70936;51.680;5.974;2023-10-31T17:31:06;31.24;28.68;51.12;;
80864;Laerm;70936;51.680;5.974;2023-10-31T17:35:07;30.72;28.69;48.08;;
80864;Laerm;70936;51.680;5.974;2023-10-31T17:39:06;30.38;28.29;43.68;;
80864;Laerm;70936;51.680;5.974;2023-10-31T17:43:06;30.24;28.55;44.92;;
80864;Laerm;70936;51.680;5.974;2023-10-31T17:47:06;29.9;28.49;40.92;;
80864;Laerm;70936;51.680;5.974;2023-10-31T17:51:06;30.48;28.39;42.89;;
80864;Laerm;70936;51.680;5.974;2023-10-31T17:55:06;31.18;28.63;49.55;;
80864;Laerm;70936;51.680;5.974;2023-10-31T17:59:06;30.4;28.58;42.71;;
80864;Laerm;70936;51.680;5.974;2023-10-31T18:03:06;30.36;28.5;42.44;;
80864;Laerm;70936;51.680;5.974;2023-10-31T18:07:06;29.76;28.59;35.77;;
80864;Laerm;70936;51.680;5.974;2023-10-31T18:11:06;30.57;28.39;51.01;;
80864;Laerm;70936;51.680;5.974;2023-10-31T18:15:07;30.39;28.54;51.09;;
80864;Laerm;70936;51.680;5.974;2023-10-31T18:19:06;29.51;28.17;34.36;;
80864;Laerm;70936;51.680;5.974;2023-10-31T18:23:06;30.1;28.55;36.11;;
80864;Laerm;70936;51.680;5.974;2023-10-31T18:27:06;29.85;28.57;34.67;;
80864;Laerm;70936;51.680;5.974;2023-10-31T18:31:06;30.89;28.46;44.58;;
80864;Laerm;70936;51.680;5.974;2023-10-31T18:35:06;30.71;28.32;46.25;;
80864;Laerm;70936;51.680;5.974;2023-10-31T18:39:06;32.72;28.65;51.22;;
80864;Laerm;70936;51.680;5.974;2023-10-31T18:43:06;30.15;28.55;45.57;;
80864;Laerm;70936;51.680;5.974;2023-10-31T18:47:06;31.12;28.69;42.46;;
80864;Laerm;70936;51.680;5.974;2023-10-31T18:51:06;35.47;28.57;57.17;;
80864;Laerm;70936;51.680;5.974;2023-10-31T18:55:07;31.05;28.68;42.98;;
80864;Laerm;70936;51.680;5.974;2023-10-31T18:59:06;32.03;28.47;50.72;;
80864;Laerm;70936;51.680;5.974;2023-10-31T19:03:06;33.31;28.76;51.82;;
80864;Laerm;70936;51.680;5.974;2023-10-31T19:07:06;31.22;28.64;45.08;;
80864;Laerm;70936;51.680;5.974;2023-10-31T19:11:06;35.52;28.5;57.7;;
80864;Laerm;70936;51.680;5.974;2023-10-31T19:15:07;30.11;28.49;41.7;;
80864;Laerm;70936;51.680;5.974;2023-10-31T19:19:06;29.83;28.65;35.56;;
80864;Laerm;70936;51.680;5.974;2023-10-31T19:23:06;29.89;28.64;34.95;;
80864;Laerm;70936;51.680;5.974;2023-10-31T19:31:06;30.27;28.34;41.09;;
80864;Laerm;70936;51.680;5.974;2023-10-31T19:35:07;29.87;28.55;37.93;;
80864;Laerm;70936;51.680;5.974;2023-10-31T19:39:06;29.54;28.49;38.55;;
80864;Laerm;70936;51.680;5.974;2023-10-31T19:43:06;30.23;28.28;41.14;;
80864;Laerm;70936;51.680;5.974;2023-10-31T19:47:06;30.09;28.48;41.54;;
80864;Laerm;70936;51.680;5.974;2023-10-31T19:51:06;29.74;28.41;38.72;;
80864;Laerm;70936;51.680;5.974;2023-10-31T19:55:07;29.48;28.42;34.08;;
80864;Laerm;70936;51.680;5.974;2023-10-31T19:59:06;29.87;28.55;37.12;;
80864;Laerm;70936;51.680;5.974;2023-10-31T20:03:06;30.4;28.53;43.42;;
80864;Laerm;70936;51.680;5.974;2023-10-31T20:07:06;29.81;28.55;38.25;;
80864;Laerm;70936;51.680;5.974;2023-10-31T20:11:06;29.82;28.45;37.54;;
80864;Laerm;70936;51.680;5.974;2023-10-31T20:15:07;29.88;28.44;38.08;;
80864;Laerm;70936;51.680;5.974;2023-10-31T20:19:06;29.96;28.5;40.75;;
80864;Laerm;70936;51.680;5.974;2023-10-31T20:23:06;29.54;28.46;34.53;;
80864;Laerm;70936;51.680;5.974;2023-10-31T20:27:06;32.22;28.53;48.69;;
80864;Laerm;70936;51.680;5.974;2023-10-31T20:31:06;32.42;28.63;48.44;;
80864;Laerm;70936;51.680;5.974;2023-10-31T20:35:06;32.66;28.49;56.4;;
80864;Laerm;70936;51.680;5.974;2023-10-31T20:39:06;30.3;28.45;43.42;;
80864;Laerm;70936;51.680;5.974;2023-10-31T20:43:06;31.25;28.63;45.04;;
80864;Laerm;70936;51.680;5.974;2023-10-31T20:47:06;29.92;28.51;44.83;;
80864;Laerm;70936;51.680;5.974;2023-10-31T20:51:06;29.75;28.4;37.89;;
80864;Laerm;70936;51.680;5.974;2023-10-31T20:55:07;29.47;28.51;33.99;;
80864;Laerm;70936;51.680;5.974;2023-10-31T20:59:06;29.93;28.59;38.48;;
80864;Laerm;70936;51.680;5.974;2023-10-31T21:03:06;30.67;28.54;48.8;;
80864;Laerm;70936;51.680;5.974;2023-10-31T21:07:06;30.99;28.63;43.08;;
80864;Laerm;70936;51.680;5.974;2023-10-31T21:11:06;30.41;28.72;40.1;;
80864;Laerm;70936;51.680;5.974;2023-10-31T21:15:07;30.26;28.53;41.95;;
80864;Laerm;70936;51.680;5.974;2023-10-31T21:19:06;29.42;28.5;33.51;;
80864;Laerm;70936;51.680;5.974;2023-10-31T21:23:08;29.52;28.42;34.39;;
80864;Laerm;70936;51.680;5.974;2023-10-31T21:27:06;30.12;28.4;38.62;;
80864;Laerm;70936;51.680;5.974;2023-10-31T21:31:06;29.78;28.58;41.02;;
80864;Laerm;70936;51.680;5.974;2023-10-31T21:35:07;30.02;28.46;40.12;;
80864;Laerm;70936;51.680;5.974;2023-10-31T21:39:06;31.17;28.56;46.45;;
80864;Laerm;70936;51.680;5.974;2023-10-31T21:43:06;29.88;28.41;40.09;;
80864;Laerm;70936;51.680;5.974;2023-10-31T21:47:06;29.55;28.54;35.25;;
80864;Laerm;70936;51.680;5.974;2023-10-31T21:51:06;29.44;28.47;37.17;;
80864;Laerm;70936;51.680;5.974;2023-10-31T21:55:06;29.39;28.36;35.92;;
80864;Laerm;70936;51.680;5.974;2023-10-31T21:59:06;29.34;28.44;33.56;;
80864;Laerm;70936;51.680;5.974;2023-10-31T22:03:06;30.25;28.37;39.95;;
80864;Laerm;70936;51.680;5.974;2023-10-31T22:07:06;29.53;28.6;36.46;;
80864;Laerm;70936;51.680;5.974;2023-10-31T22:11:06;29.71;28.59;43.17;;
80864;Laerm;70936;51.680;5.974;2023-10-31T22:15:07;29.24;28.43;37.49;;
80864;Laerm;70936;51.680;5.974;2023-10-31T22:19:06;29.34;28.41;39.53;;
80864;Laerm;70936;51.680;5.974;2023-10-31T22:23:06;29.31;28.36;35.1;;
80864;Laerm;70936;51.680;5.974;2023-10-31T22:27:06;29.29;28.4;35.06;;
80864;Laerm;70936;51.680;5.974;2023-10-31T22:31:06;29.65;28.48;35.91;;